sensor_id;sensor_type;location;lat;lon;timestamp;temperature;humidity
70089;HTU21D;57460;47.134;19.888;2023-03-02T00:01:06;2.87;54.17
70089;HTU21D;57460;47.134;19.888;2023-03-02T00:03:39;2.80;54.26
70089;HTU21D;57460;47.134;19.888;2023-03-02T00:06:07;2.79;55.43
70089;HTU21D;57460;47.134;19.888;2023-03-02T00:08:34;2.73;54.79
70089;HTU21D;57460;47.134;19.888;2023-03-02T00:11:01;2.69;54.84
70089;HTU21D;57460;47.134;19.888;2023-03-02T00:13:31;2.67;54.65
70089;HTU21D;57460;47.134;19.888;2023-03-02T00:15:58;2.67;55.23
70089;HTU21D;57460;47.134;19.888;2023-03-02T00:18:24;2.65;54.84
70089;HTU21D;57460;47.134;19.888;2023-03-02T00:20:50;2.58;54.68
70089;HTU21D;57460;47.134;19.888;2023-03-02T00:23:16;2.55;55.29
70089;HTU21D;57460;47.134;19.888;2023-03-02T00:25:42;2.53;55.52
70089;HTU21D;57460;47.134;19.888;2023-03-02T00:28:07;2.49;55.38
70089;HTU21D;57460;47.134;19.888;2023-03-02T00:30:33;2.53;55.42
70089;HTU21D;57460;47.134;19.888;2023-03-02T00:32:59;2.50;55.46
70089;HTU21D;57460;47.134;19.888;2023-03-02T00:35:24;2.53;55.62
70089;HTU21D;57460;47.134;19.888;2023-03-02T00:37:51;2.54;55.60
70089;HTU21D;57460;47.134;19.888;2023-03-02T00:40:17;2.53;55.66
70089;HTU21D;57460;47.134;19.888;2023-03-02T00:42:43;2.55;55.76
70089;HTU21D;57460;47.134;19.888;2023-03-02T00:45:09;2.56;56.00
70089;HTU21D;57460;47.134;19.888;2023-03-02T00:47:36;2.60;55.72
70089;HTU21D;57460;47.134;19.888;2023-03-02T00:50:04;2.61;55.84
70089;HTU21D;57460;47.134;19.888;2023-03-02T00:52:32;2.68;55.65
70089;HTU21D;57460;47.134;19.888;2023-03-02T00:54:58;2.73;55.71
70089;HTU21D;57460;47.134;19.888;2023-03-02T00:57:24;2.74;55.44
70089;HTU21D;57460;47.134;19.888;2023-03-02T00:59:49;2.75;55.16
70089;HTU21D;57460;47.134;19.888;2023-03-02T01:02:15;2.81;55.21
70089;HTU21D;57460;47.134;19.888;2023-03-02T01:04:42;2.79;54.95
70089;HTU21D;57460;47.134;19.888;2023-03-02T01:07:11;2.82;54.87
70089;HTU21D;57460;47.134;19.888;2023-03-02T01:09:39;2.81;54.50
70089;HTU21D;57460;47.134;19.888;2023-03-02T01:12:06;2.83;54.62
70089;HTU21D;57460;47.134;19.888;2023-03-02T01:14:40;2.83;55.28
70089;HTU21D;57460;47.134;19.888;2023-03-02T01:17:07;2.81;54.74
70089;HTU21D;57460;47.134;19.888;2023-03-02T01:19:34;2.79;54.69
70089;HTU21D;57460;47.134;19.888;2023-03-02T01:22:01;2.85;55.04
70089;HTU21D;57460;47.134;19.888;2023-03-02T01:24:27;2.85;54.62
70089;HTU21D;57460;47.134;19.888;2023-03-02T01:26:53;2.84;54.68
70089;HTU21D;57460;47.134;19.888;2023-03-02T01:29:19;2.86;54.97
70089;HTU21D;57460;47.134;19.888;2023-03-02T01:31:45;2.83;54.71
70089;HTU21D;57460;47.134;19.888;2023-03-02T01:34:10;2.86;55.10
70089;HTU21D;57460;47.134;19.888;2023-03-02T01:36:36;2.83;54.81
70089;HTU21D;57460;47.134;19.888;2023-03-02T01:39:02;2.81;54.62
70089;HTU21D;57460;47.134;19.888;2023-03-02T01:41:29;2.79;54.68
70089;HTU21D;57460;47.134;19.888;2023-03-02T01:43:55;2.70;54.81
70089;HTU21D;57460;47.134;19.888;2023-03-02T01:46:24;2.68;55.01
70089;HTU21D;57460;47.134;19.888;2023-03-02T01:49:03;2.66;54.67
70089;HTU21D;57460;47.134;19.888;2023-03-02T01:51:37;2.62;54.74
70089;HTU21D;57460;47.134;19.888;2023-03-02T01:54:11;2.60;54.52
70089;HTU21D;57460;47.134;19.888;2023-03-02T01:56:44;2.55;54.42
70089;HTU21D;57460;47.134;19.888;2023-03-02T01:59:13;2.54;55.09
70089;HTU21D;57460;47.134;19.888;2023-03-02T02:01:44;2.53;54.92
70089;HTU21D;57460;47.134;19.888;2023-03-02T02:04:10;2.50;55.09
70089;HTU21D;57460;47.134;19.888;2023-03-02T02:06:46;2.43;54.43
70089;HTU21D;57460;47.134;19.888;2023-03-02T02:09:16;2.40;54.54
70089;HTU21D;57460;47.134;19.888;2023-03-02T02:11:43;2.34;54.42
70089;HTU21D;57460;47.134;19.888;2023-03-02T02:14:09;2.30;54.69
70089;HTU21D;57460;47.134;19.888;2023-03-02T02:16:36;2.26;55.20
70089;HTU21D;57460;47.134;19.888;2023-03-02T02:19:11;2.25;54.84
70089;HTU21D;57460;47.134;19.888;2023-03-02T02:21:39;2.21;54.57
70089;HTU21D;57460;47.134;19.888;2023-03-02T02:24:20;2.24;54.89
70089;HTU21D;57460;47.134;19.888;2023-03-02T02:26:55;2.27;54.40
70089;HTU21D;57460;47.134;19.888;2023-03-02T02:29:29;2.25;54.92
70089;HTU21D;57460;47.134;19.888;2023-03-02T02:35:10;2.30;54.39
70089;HTU21D;57460;47.134;19.888;2023-03-02T02:37:45;2.31;54.28
70089;HTU21D;57460;47.134;19.888;2023-03-02T02:43:03;2.25;54.71
70089;HTU21D;57460;47.134;19.888;2023-03-02T02:45:29;2.27;54.60
70089;HTU21D;57460;47.134;19.888;2023-03-02T02:47:56;2.20;54.52
70089;HTU21D;57460;47.134;19.888;2023-03-02T02:50:34;2.13;54.37
70089;HTU21D;57460;47.134;19.888;2023-03-02T02:53:13;2.12;54.54
70089;HTU21D;57460;47.134;19.888;2023-03-02T02:55:42;2.19;54.66
70089;HTU21D;57460;47.134;19.888;2023-03-02T03:01:04;2.20;54.55
70089;HTU21D;57460;47.134;19.888;2023-03-02T03:03:37;2.24;54.21
70089;HTU21D;57460;47.134;19.888;2023-03-02T03:06:12;2.26;54.15
70089;HTU21D;57460;47.134;19.888;2023-03-02T03:11:16;2.14;54.39
70089;HTU21D;57460;47.134;19.888;2023-03-02T03:14:03;2.11;54.13
70089;HTU21D;57460;47.134;19.888;2023-03-02T03:16:31;2.09;54.07
70089;HTU21D;57460;47.134;19.888;2023-03-02T03:21:49;1.93;54.41
70089;HTU21D;57460;47.134;19.888;2023-03-02T03:24:16;1.91;54.65
70089;HTU21D;57460;47.134;19.888;2023-03-02T03:26:43;1.87;54.64
70089;HTU21D;57460;47.134;19.888;2023-03-02T03:29:10;1.88;54.56
70089;HTU21D;57460;47.134;19.888;2023-03-02T03:31:36;1.91;54.43
70089;HTU21D;57460;47.134;19.888;2023-03-02T03:34:02;1.87;54.46
70089;HTU21D;57460;47.134;19.888;2023-03-02T03:36:29;1.91;54.64
70089;HTU21D;57460;47.134;19.888;2023-03-02T03:38:57;1.86;54.84
70089;HTU21D;57460;47.134;19.888;2023-03-02T03:41:24;1.77;54.83
70089;HTU21D;57460;47.134;19.888;2023-03-02T03:43:51;1.70;54.99
70089;HTU21D;57460;47.134;19.888;2023-03-02T03:46:17;1.68;55.29
70089;HTU21D;57460;47.134;19.888;2023-03-02T03:48:43;1.69;55.23
70089;HTU21D;57460;47.134;19.888;2023-03-02T03:51:09;1.65;54.98
70089;HTU21D;57460;47.134;19.888;2023-03-02T03:53:36;1.69;55.17
70089;HTU21D;57460;47.134;19.888;2023-03-02T03:56:02;1.79;54.86
70089;HTU21D;57460;47.134;19.888;2023-03-02T03:58:29;1.76;54.70
70089;HTU21D;57460;47.134;19.888;2023-03-02T04:00:56;1.75;54.97
70089;HTU21D;57460;47.134;19.888;2023-03-02T04:03:23;1.80;55.33
70089;HTU21D;57460;47.134;19.888;2023-03-02T04:05:50;1.85;55.04
70089;HTU21D;57460;47.134;19.888;2023-03-02T04:08:17;1.78;54.79
70089;HTU21D;57460;47.134;19.888;2023-03-02T04:10:43;1.73;54.87
70089;HTU21D;57460;47.134;19.888;2023-03-02T04:13:10;1.71;55.22
70089;HTU21D;57460;47.134;19.888;2023-03-02T04:15:39;1.63;55.38
70089;HTU21D;57460;47.134;19.888;2023-03-02T04:18:06;1.69;55.37
70089;HTU21D;57460;47.134;19.888;2023-03-02T04:20:31;1.69;54.92
70089;HTU21D;57460;47.134;19.888;2023-03-02T04:22:58;1.62;54.74
70089;HTU21D;57460;47.134;19.888;2023-03-02T04:25:26;1.43;55.11
70089;HTU21D;57460;47.134;19.888;2023-03-02T04:27:54;1.32;55.54
70089;HTU21D;57460;47.134;19.888;2023-03-02T04:30:23;1.23;55.96
70089;HTU21D;57460;47.134;19.888;2023-03-02T04:32:49;1.16;56.45
70089;HTU21D;57460;47.134;19.888;2023-03-02T04:35:15;1.16;56.19
70089;HTU21D;57460;47.134;19.888;2023-03-02T04:37:43;1.16;56.23
70089;HTU21D;57460;47.134;19.888;2023-03-02T04:40:11;1.23;55.73
70089;HTU21D;57460;47.134;19.888;2023-03-02T04:42:37;1.17;55.70
70089;HTU21D;57460;47.134;19.888;2023-03-02T04:45:03;1.05;56.26
70089;HTU21D;57460;47.134;19.888;2023-03-02T04:47:29;0.96;56.54
70089;HTU21D;57460;47.134;19.888;2023-03-02T04:49:55;0.90;56.68
70089;HTU21D;57460;47.134;19.888;2023-03-02T04:52:22;0.89;56.66
70089;HTU21D;57460;47.134;19.888;2023-03-02T04:54:49;0.84;56.82
70089;HTU21D;57460;47.134;19.888;2023-03-02T04:57:15;0.79;56.93
70089;HTU21D;57460;47.134;19.888;2023-03-02T04:59:41;0.84;56.55
70089;HTU21D;57460;47.134;19.888;2023-03-02T05:02:06;0.90;56.11
70089;HTU21D;57460;47.134;19.888;2023-03-02T05:04:32;0.92;55.67
70089;HTU21D;57460;47.134;19.888;2023-03-02T05:06:58;0.72;56.22
70089;HTU21D;57460;47.134;19.888;2023-03-02T05:09:25;0.60;57.61
70089;HTU21D;57460;47.134;19.888;2023-03-02T05:11:57;0.57;58.16
70089;HTU21D;57460;47.134;19.888;2023-03-02T05:14:25;0.62;56.84
70089;HTU21D;57460;47.134;19.888;2023-03-02T05:16:52;0.66;56.40
70089;HTU21D;57460;47.134;19.888;2023-03-02T05:19:18;0.66;56.15
70089;HTU21D;57460;47.134;19.888;2023-03-02T05:21:44;0.44;57.48
70089;HTU21D;57460;47.134;19.888;2023-03-02T05:24:11;0.33;58.33
70089;HTU21D;57460;47.134;19.888;2023-03-02T05:26:37;0.33;58.51
70089;HTU21D;57460;47.134;19.888;2023-03-02T05:29:03;0.34;58.69
70089;HTU21D;57460;47.134;19.888;2023-03-02T05:31:37;0.35;58.79
70089;HTU21D;57460;47.134;19.888;2023-03-02T05:34:06;0.51;57.00
70089;HTU21D;57460;47.134;19.888;2023-03-02T05:36:34;0.57;56.58
70089;HTU21D;57460;47.134;19.888;2023-03-02T05:39:00;0.58;56.48
70089;HTU21D;57460;47.134;19.888;2023-03-02T05:41:26;0.44;58.49
70089;HTU21D;57460;47.134;19.888;2023-03-02T05:43:52;0.46;58.05
70089;HTU21D;57460;47.134;19.888;2023-03-02T05:46:18;0.50;57.91
70089;HTU21D;57460;47.134;19.888;2023-03-02T05:48:44;0.55;58.52
70089;HTU21D;57460;47.134;19.888;2023-03-02T05:51:11;0.66;58.11
70089;HTU21D;57460;47.134;19.888;2023-03-02T05:53:37;0.77;57.36
70089;HTU21D;57460;47.134;19.888;2023-03-02T05:56:03;0.87;57.20
70089;HTU21D;57460;47.134;19.888;2023-03-02T05:58:29;1.07;56.53
70089;HTU21D;57460;47.134;19.888;2023-03-02T06:00:55;1.17;56.75
70089;HTU21D;57460;47.134;19.888;2023-03-02T06:03:21;1.24;56.99
70089;HTU21D;57460;47.134;19.888;2023-03-02T06:05:46;1.38;56.82
70089;HTU21D;57460;47.134;19.888;2023-03-02T06:08:19;1.56;56.61
70089;HTU21D;57460;47.134;19.888;2023-03-02T06:10:46;1.82;55.43
70089;HTU21D;57460;47.134;19.888;2023-03-02T06:13:12;1.83;55.65
70089;HTU21D;57460;47.134;19.888;2023-03-02T06:15:38;1.84;55.72
70089;HTU21D;57460;47.134;19.888;2023-03-02T06:18:05;1.96;55.49
70089;HTU21D;57460;47.134;19.888;2023-03-02T06:20:31;2.09;55.33
70089;HTU21D;57460;47.134;19.888;2023-03-02T06:22:57;2.17;55.37
70089;HTU21D;57460;47.134;19.888;2023-03-02T06:25:24;2.35;54.93
70089;HTU21D;57460;47.134;19.888;2023-03-02T06:27:50;2.46;54.54
70089;HTU21D;57460;47.134;19.888;2023-03-02T06:30:21;2.53;54.52
70089;HTU21D;57460;47.134;19.888;2023-03-02T06:32:47;2.59;54.26
70089;HTU21D;57460;47.134;19.888;2023-03-02T06:35:13;2.60;54.68
70089;HTU21D;57460;47.134;19.888;2023-03-02T06:37:39;2.59;55.00
70089;HTU21D;57460;47.134;19.888;2023-03-02T06:40:06;2.78;54.90
70089;HTU21D;57460;47.134;19.888;2023-03-02T06:42:36;2.74;55.23
70089;HTU21D;57460;47.134;19.888;2023-03-02T06:45:03;2.76;55.79
70089;HTU21D;57460;47.134;19.888;2023-03-02T06:47:29;2.82;57.12
70089;HTU21D;57460;47.134;19.888;2023-03-02T06:49:55;3.04;55.54
70089;HTU21D;57460;47.134;19.888;2023-03-02T06:52:21;3.18;55.40
70089;HTU21D;57460;47.134;19.888;2023-03-02T06:54:47;3.30;55.37
70089;HTU21D;57460;47.134;19.888;2023-03-02T06:57:13;3.43;55.98
70089;HTU21D;57460;47.134;19.888;2023-03-02T06:59:39;3.61;55.55
70089;HTU21D;57460;47.134;19.888;2023-03-02T07:02:05;3.85;55.38
70089;HTU21D;57460;47.134;19.888;2023-03-02T07:04:31;4.02;55.21
70089;HTU21D;57460;47.134;19.888;2023-03-02T07:06:57;4.18;55.20
70089;HTU21D;57460;47.134;19.888;2023-03-02T07:09:22;4.35;54.23
70089;HTU21D;57460;47.134;19.888;2023-03-02T07:11:49;4.43;52.63
70089;HTU21D;57460;47.134;19.888;2023-03-02T07:14:15;4.53;53.49
70089;HTU21D;57460;47.134;19.888;2023-03-02T07:16:40;4.69;52.90
70089;HTU21D;57460;47.134;19.888;2023-03-02T07:19:11;4.73;52.85
70089;HTU21D;57460;47.134;19.888;2023-03-02T07:21:37;4.80;52.94
70089;HTU21D;57460;47.134;19.888;2023-03-02T07:24:03;4.90;53.07
70089;HTU21D;57460;47.134;19.888;2023-03-02T07:26:29;4.97;53.81
70089;HTU21D;57460;47.134;19.888;2023-03-02T07:28:55;5.10;53.33
70089;HTU21D;57460;47.134;19.888;2023-03-02T07:31:24;5.26;52.77
70089;HTU21D;57460;47.134;19.888;2023-03-02T07:33:50;5.41;51.20
70089;HTU21D;57460;47.134;19.888;2023-03-02T07:36:16;5.63;52.14
70089;HTU21D;57460;47.134;19.888;2023-03-02T07:38:41;5.74;51.20
70089;HTU21D;57460;47.134;19.888;2023-03-02T07:41:08;5.82;51.58
70089;HTU21D;57460;47.134;19.888;2023-03-02T07:43:35;5.94;50.88
70089;HTU21D;57460;47.134;19.888;2023-03-02T07:46:04;6.10;51.47
70089;HTU21D;57460;47.134;19.888;2023-03-02T07:48:31;6.20;50.59
70089;HTU21D;57460;47.134;19.888;2023-03-02T07:51:02;6.31;50.53
70089;HTU21D;57460;47.134;19.888;2023-03-02T07:53:29;6.50;51.11
70089;HTU21D;57460;47.134;19.888;2023-03-02T07:55:55;6.59;50.19
70089;HTU21D;57460;47.134;19.888;2023-03-02T07:58:21;6.78;50.95
70089;HTU21D;57460;47.134;19.888;2023-03-02T08:00:48;6.95;50.58
70089;HTU21D;57460;47.134;19.888;2023-03-02T08:03:13;7.05;51.04
70089;HTU21D;57460;47.134;19.888;2023-03-02T08:05:39;7.25;49.89
70089;HTU21D;57460;47.134;19.888;2023-03-02T08:08:05;7.39;50.17
70089;HTU21D;57460;47.134;19.888;2023-03-02T08:10:33;7.44;49.22
70089;HTU21D;57460;47.134;19.888;2023-03-02T08:12:59;7.55;49.58
70089;HTU21D;57460;47.134;19.888;2023-03-02T08:15:25;7.59;49.29
70089;HTU21D;57460;47.134;19.888;2023-03-02T08:17:51;7.78;49.44
70089;HTU21D;57460;47.134;19.888;2023-03-02T08:20:17;7.98;49.76
70089;HTU21D;57460;47.134;19.888;2023-03-02T08:22:43;8.19;49.19
70089;HTU21D;57460;47.134;19.888;2023-03-02T08:25:08;8.41;48.50
70089;HTU21D;57460;47.134;19.888;2023-03-02T08:27:34;8.56;48.42
70089;HTU21D;57460;47.134;19.888;2023-03-02T08:30:00;8.78;47.89
70089;HTU21D;57460;47.134;19.888;2023-03-02T08:32:26;8.89;47.09
70089;HTU21D;57460;47.134;19.888;2023-03-02T08:34:52;8.83;46.11
70089;HTU21D;57460;47.134;19.888;2023-03-02T08:37:18;8.67;47.63
70089;HTU21D;57460;47.134;19.888;2023-03-02T08:39:44;8.82;49.02
70089;HTU21D;57460;47.134;19.888;2023-03-02T08:42:10;8.98;48.69
70089;HTU21D;57460;47.134;19.888;2023-03-02T08:44:35;9.19;47.95
70089;HTU21D;57460;47.134;19.888;2023-03-02T08:47:01;9.41;48.06
70089;HTU21D;57460;47.134;19.888;2023-03-02T08:49:27;9.67;47.86
70089;HTU21D;57460;47.134;19.888;2023-03-02T08:51:53;9.88;46.97
70089;HTU21D;57460;47.134;19.888;2023-03-02T08:54:23;10.01;45.19
70089;HTU21D;57460;47.134;19.888;2023-03-02T08:56:48;10.12;46.04
70089;HTU21D;57460;47.134;19.888;2023-03-02T08:59:15;10.30;47.53
70089;HTU21D;57460;47.134;19.888;2023-03-02T09:01:41;10.42;47.23
70089;HTU21D;57460;47.134;19.888;2023-03-02T09:04:09;10.52;44.02
70089;HTU21D;57460;47.134;19.888;2023-03-02T09:06:39;10.84;45.50
70089;HTU21D;57460;47.134;19.888;2023-03-02T09:09:06;11.43;44.55
70089;HTU21D;57460;47.134;19.888;2023-03-02T09:11:32;12.03;44.71
70089;HTU21D;57460;47.134;19.888;2023-03-02T09:13:58;12.63;39.62
70089;HTU21D;57460;47.134;19.888;2023-03-02T09:16:24;13.01;41.47
70089;HTU21D;57460;47.134;19.888;2023-03-02T09:18:52;13.27;39.63
70089;HTU21D;57460;47.134;19.888;2023-03-02T09:21:18;13.77;41.04
70089;HTU21D;57460;47.134;19.888;2023-03-02T09:23:44;14.21;39.15
70089;HTU21D;57460;47.134;19.888;2023-03-02T09:26:10;14.53;38.33
70089;HTU21D;57460;47.134;19.888;2023-03-02T09:28:36;15.03;35.88
70089;HTU21D;57460;47.134;19.888;2023-03-02T09:31:06;15.34;36.99
70089;HTU21D;57460;47.134;19.888;2023-03-02T09:33:32;15.61;35.91
70089;HTU21D;57460;47.134;19.888;2023-03-02T09:35:59;15.86;34.98
70089;HTU21D;57460;47.134;19.888;2023-03-02T09:38:26;15.91;34.75
70089;HTU21D;57460;47.134;19.888;2023-03-02T09:46:26;14.26;39.28
70089;HTU21D;57460;47.134;19.888;2023-03-02T09:49:20;13.94;40.85
70089;HTU21D;57460;47.134;19.888;2023-03-02T09:54:54;13.59;41.80
70089;HTU21D;57460;47.134;19.888;2023-03-02T09:57:28;13.51;42.71
70089;HTU21D;57460;47.134;19.888;2023-03-02T10:00:00;13.50;41.59
70089;HTU21D;57460;47.134;19.888;2023-03-02T10:02:50;13.18;43.81
70089;HTU21D;57460;47.134;19.888;2023-03-02T10:05:22;12.80;44.80
70089;HTU21D;57460;47.134;19.888;2023-03-02T10:07:48;12.73;45.35
70089;HTU21D;57460;47.134;19.888;2023-03-02T10:10:21;12.65;43.77
70089;HTU21D;57460;47.134;19.888;2023-03-02T10:15:25;12.92;44.62
70089;HTU21D;57460;47.134;19.888;2023-03-02T10:20:35;13.26;44.10
70089;HTU21D;57460;47.134;19.888;2023-03-02T10:26:03;13.37;44.57
70089;HTU21D;57460;47.134;19.888;2023-03-02T10:28:41;13.38;45.32
70089;HTU21D;57460;47.134;19.888;2023-03-02T10:31:26;13.53;45.45
70089;HTU21D;57460;47.134;19.888;2023-03-02T10:33:53;13.81;43.85
70089;HTU21D;57460;47.134;19.888;2023-03-02T10:36:42;13.88;43.90
70089;HTU21D;57460;47.134;19.888;2023-03-02T10:39:13;13.99;44.41
70089;HTU21D;57460;47.134;19.888;2023-03-02T10:41:47;13.86;44.56
70089;HTU21D;57460;47.134;19.888;2023-03-02T10:44:23;13.92;44.25
70089;HTU21D;57460;47.134;19.888;2023-03-02T10:46:51;14.09;43.91
70089;HTU21D;57460;47.134;19.888;2023-03-02T10:49:28;14.13;42.90
70089;HTU21D;57460;47.134;19.888;2023-03-02T10:52:04;14.10;43.83
70089;HTU21D;57460;47.134;19.888;2023-03-02T10:54:33;13.88;44.13
70089;HTU21D;57460;47.134;19.888;2023-03-02T10:57:03;14.09;44.96
70089;HTU21D;57460;47.134;19.888;2023-03-02T11:02:01;13.89;44.64
70089;HTU21D;57460;47.134;19.888;2023-03-02T11:04:29;13.95;45.55
70089;HTU21D;57460;47.134;19.888;2023-03-02T11:07:09;13.82;45.21
70089;HTU21D;57460;47.134;19.888;2023-03-02T11:09:38;13.82;46.57
70089;HTU21D;57460;47.134;19.888;2023-03-02T11:12:14;14.10;46.12
70089;HTU21D;57460;47.134;19.888;2023-03-02T11:14:41;14.36;46.54
70089;HTU21D;57460;47.134;19.888;2023-03-02T11:17:33;14.91;44.12
70089;HTU21D;57460;47.134;19.888;2023-03-02T11:20:01;14.85;43.61
70089;HTU21D;57460;47.134;19.888;2023-03-02T11:22:40;14.94;43.64
70089;HTU21D;57460;47.134;19.888;2023-03-02T11:25:29;14.81;43.73
70089;HTU21D;57460;47.134;19.888;2023-03-02T11:28:04;14.70;44.39
70089;HTU21D;57460;47.134;19.888;2023-03-02T11:30:39;14.42;45.34
70089;HTU21D;57460;47.134;19.888;2023-03-02T11:33:24;14.27;45.95
70089;HTU21D;57460;47.134;19.888;2023-03-02T11:35:57;14.55;45.20
70089;HTU21D;57460;47.134;19.888;2023-03-02T11:38:27;14.55;45.72
70089;HTU21D;57460;47.134;19.888;2023-03-02T11:43:39;14.78;45.94
70089;HTU21D;57460;47.134;19.888;2023-03-02T11:46:13;14.98;44.51
70089;HTU21D;57460;47.134;19.888;2023-03-02T11:48:46;14.99;42.47
70089;HTU21D;57460;47.134;19.888;2023-03-02T11:51:22;14.75;43.56
70089;HTU21D;57460;47.134;19.888;2023-03-02T11:54:24;14.97;45.60
70089;HTU21D;57460;47.134;19.888;2023-03-02T11:56:53;15.16;44.17
70089;HTU21D;57460;47.134;19.888;2023-03-02T11:59:22;15.02;44.19
70089;HTU21D;57460;47.134;19.888;2023-03-02T12:01:51;14.86;44.68
70089;HTU21D;57460;47.134;19.888;2023-03-02T12:04:35;14.85;45.97
70089;HTU21D;57460;47.134;19.888;2023-03-02T12:07:24;15.04;45.92
70089;HTU21D;57460;47.134;19.888;2023-03-02T12:10:07;15.44;43.35
70089;HTU21D;57460;47.134;19.888;2023-03-02T12:12:46;15.10;43.34
70089;HTU21D;57460;47.134;19.888;2023-03-02T12:31:20;15.01;45.21
70089;HTU21D;57460;47.134;19.888;2023-03-02T12:33:49;15.10;44.88
70089;HTU21D;57460;47.134;19.888;2023-03-02T12:36:27;14.95;45.43
70089;HTU21D;57460;47.134;19.888;2023-03-02T12:42:38;14.62;46.91
70089;HTU21D;57460;47.134;19.888;2023-03-02T12:45:36;14.53;46.76
70089;HTU21D;57460;47.134;19.888;2023-03-02T12:48:28;14.51;47.28
70089;HTU21D;57460;47.134;19.888;2023-03-02T12:51:00;14.83;46.38
70089;HTU21D;57460;47.134;19.888;2023-03-02T12:53:26;14.95;45.50
70089;HTU21D;57460;47.134;19.888;2023-03-02T12:55:53;14.99;46.20
70089;HTU21D;57460;47.134;19.888;2023-03-02T12:58:26;15.17;44.95
70089;HTU21D;57460;47.134;19.888;2023-03-02T13:00:55;15.31;45.34
70089;HTU21D;57460;47.134;19.888;2023-03-02T13:03:21;15.48;44.06
70089;HTU21D;57460;47.134;19.888;2023-03-02T13:05:48;15.59;44.83
70089;HTU21D;57460;47.134;19.888;2023-03-02T13:10:55;15.75;44.76
70089;HTU21D;57460;47.134;19.888;2023-03-02T13:13:26;15.48;44.39
70089;HTU21D;57460;47.134;19.888;2023-03-02T13:18:20;15.22;44.84
70089;HTU21D;57460;47.134;19.888;2023-03-02T13:20:48;15.17;45.85
70089;HTU21D;57460;47.134;19.888;2023-03-02T13:23:15;15.29;45.70
70089;HTU21D;57460;47.134;19.888;2023-03-02T13:26:03;15.09;44.92
70089;HTU21D;57460;47.134;19.888;2023-03-02T13:28:32;14.98;45.80
70089;HTU21D;57460;47.134;19.888;2023-03-02T13:31:17;14.97;45.99
70089;HTU21D;57460;47.134;19.888;2023-03-02T13:33:46;15.08;45.28
70089;HTU21D;57460;47.134;19.888;2023-03-02T13:38:53;15.15;44.45
70089;HTU21D;57460;47.134;19.888;2023-03-02T13:41:24;15.22;45.68
70089;HTU21D;57460;47.134;19.888;2023-03-02T13:43:50;15.12;45.98
70089;HTU21D;57460;47.134;19.888;2023-03-02T13:48:58;15.11;46.19
70089;HTU21D;57460;47.134;19.888;2023-03-02T13:51:29;15.03;45.71
70089;HTU21D;57460;47.134;19.888;2023-03-02T13:53:59;14.99;45.86
70089;HTU21D;57460;47.134;19.888;2023-03-02T13:56:32;15.06;46.02
70089;HTU21D;57460;47.134;19.888;2023-03-02T13:59:00;15.07;45.17
70089;HTU21D;57460;47.134;19.888;2023-03-02T14:01:27;15.03;46.12
70089;HTU21D;57460;47.134;19.888;2023-03-02T14:03:53;14.71;46.19
70089;HTU21D;57460;47.134;19.888;2023-03-02T14:06:19;14.69;46.33
70089;HTU21D;57460;47.134;19.888;2023-03-02T14:08:45;14.92;45.90
70089;HTU21D;57460;47.134;19.888;2023-03-02T14:11:13;15.06;45.87
70089;HTU21D;57460;47.134;19.888;2023-03-02T14:13:47;15.10;45.38
70089;HTU21D;57460;47.134;19.888;2023-03-02T14:16:15;15.16;46.23
70089;HTU21D;57460;47.134;19.888;2023-03-02T14:18:44;15.11;45.24
70089;HTU21D;57460;47.134;19.888;2023-03-02T14:21:17;15.10;45.86
70089;HTU21D;57460;47.134;19.888;2023-03-02T14:23:44;14.78;45.57
70089;HTU21D;57460;47.134;19.888;2023-03-02T14:28:58;14.44;46.88
70089;HTU21D;57460;47.134;19.888;2023-03-02T14:31:24;14.49;46.42
70089;HTU21D;57460;47.134;19.888;2023-03-02T14:33:51;14.53;46.84
70089;HTU21D;57460;47.134;19.888;2023-03-02T14:36:27;14.34;47.16
70089;HTU21D;57460;47.134;19.888;2023-03-02T14:38:55;14.27;46.47
70089;HTU21D;57460;47.134;19.888;2023-03-02T14:41:23;14.45;46.89
70089;HTU21D;57460;47.134;19.888;2023-03-02T14:43:49;14.26;47.17
70089;HTU21D;57460;47.134;19.888;2023-03-02T14:46:15;14.28;47.34
70089;HTU21D;57460;47.134;19.888;2023-03-02T14:48:41;14.33;46.95
70089;HTU21D;57460;47.134;19.888;2023-03-02T14:51:23;14.27;47.05
70089;HTU21D;57460;47.134;19.888;2023-03-02T14:53:52;14.27;46.86
70089;HTU21D;57460;47.134;19.888;2023-03-02T14:56:20;14.21;47.08
70089;HTU21D;57460;47.134;19.888;2023-03-02T14:58:51;14.13;47.57
70089;HTU21D;57460;47.134;19.888;2023-03-02T15:01:18;14.15;47.70
70089;HTU21D;57460;47.134;19.888;2023-03-02T15:03:44;14.17;47.29
70089;HTU21D;57460;47.134;19.888;2023-03-02T15:06:28;14.11;47.86
70089;HTU21D;57460;47.134;19.888;2023-03-02T15:08:56;14.08;47.92
70089;HTU21D;57460;47.134;19.888;2023-03-02T15:11:23;14.01;48.21
70089;HTU21D;57460;47.134;19.888;2023-03-02T15:13:49;13.91;48.17
70089;HTU21D;57460;47.134;19.888;2023-03-02T15:16:15;13.88;48.15
70089;HTU21D;57460;47.134;19.888;2023-03-02T15:18:41;13.67;48.70
70089;HTU21D;57460;47.134;19.888;2023-03-02T15:21:15;13.58;49.01
70089;HTU21D;57460;47.134;19.888;2023-03-02T15:23:41;13.49;48.82
70089;HTU21D;57460;47.134;19.888;2023-03-02T15:26:09;13.41;48.98
70089;HTU21D;57460;47.134;19.888;2023-03-02T15:28:35;13.40;49.27
70089;HTU21D;57460;47.134;19.888;2023-03-02T15:31:14;13.37;49.36
70089;HTU21D;57460;47.134;19.888;2023-03-02T15:33:41;13.35;49.34
70089;HTU21D;57460;47.134;19.888;2023-03-02T15:36:11;13.32;49.52
70089;HTU21D;57460;47.134;19.888;2023-03-02T15:38:37;13.30;49.34
70089;HTU21D;57460;47.134;19.888;2023-03-02T15:41:11;13.27;49.47
70089;HTU21D;57460;47.134;19.888;2023-03-02T15:43:37;13.23;49.48
70089;HTU21D;57460;47.134;19.888;2023-03-02T15:46:07;13.14;49.62
70089;HTU21D;57460;47.134;19.888;2023-03-02T15:48:34;13.09;49.79
70089;HTU21D;57460;47.134;19.888;2023-03-02T15:51:03;13.01;49.83
70089;HTU21D;57460;47.134;19.888;2023-03-02T15:53:31;12.96;50.01
70089;HTU21D;57460;47.134;19.888;2023-03-02T15:55:57;12.91;49.99
70089;HTU21D;57460;47.134;19.888;2023-03-02T15:58:23;12.88;50.02
70089;HTU21D;57460;47.134;19.888;2023-03-02T16:00:50;12.84;49.92
70089;HTU21D;57460;47.134;19.888;2023-03-02T16:03:18;12.82;49.82
70089;HTU21D;57460;47.134;19.888;2023-03-02T16:05:44;12.81;49.89
70089;HTU21D;57460;47.134;19.888;2023-03-02T16:08:10;12.77;49.61
70089;HTU21D;57460;47.134;19.888;2023-03-02T16:10:36;12.70;49.68
70089;HTU21D;57460;47.134;19.888;2023-03-02T16:13:02;12.60;50.14
70089;HTU21D;57460;47.134;19.888;2023-03-02T16:15:29;12.44;49.96
70089;HTU21D;57460;47.134;19.888;2023-03-02T16:17:55;12.30;50.69
70089;HTU21D;57460;47.134;19.888;2023-03-02T16:20:20;12.16;50.83
70089;HTU21D;57460;47.134;19.888;2023-03-02T16:22:46;12.07;51.37
70089;HTU21D;57460;47.134;19.888;2023-03-02T16:25:12;11.92;51.32
70089;HTU21D;57460;47.134;19.888;2023-03-02T16:27:38;11.75;52.24
70089;HTU21D;57460;47.134;19.888;2023-03-02T16:30:05;11.60;51.86